Time;durP1;ratioP1;P1;durP2;ratioP2;P2;SDS_P1;SDS_P2;PMS_P1;PMS_P2;Temp;Humidity;BMP_temperature;BMP_pressure;BME280_temperature;BME280_humidity;BME280_pressure;Samples;Min_cycle;Max_cycle;Signal;HPM_P1;HPM_P2
2021/03/25 00:01:54;;;;;;;50.40;42.43;;;;;;;;;;5029125;28;20449;-63
2021/03/25 00:04:21;;;;;;;51.17;43.60;;;;;;;;;;5015014;28;20464;-63
2021/03/25 00:06:50;;;;;;;55.20;42.77;;;;;;;;;;5017174;28;20559;-64
2021/03/25 00:09:18;;;;;;;57.77;45.90;;;;;;;;;;5025359;28;20530;-63
2021/03/25 00:11:45;;;;;;;50.33;42.23;;;;;;;;;;5022621;28;20477;-63
2021/03/25 00:14:12;;;;;;;52.27;43.77;;;;;;;;;;4992509;28;20457;-63
2021/03/25 00:16:39;;;;;;;54.10;45.37;;;;;;;;;;5019949;28;20581;-63
2021/03/25 00:19:06;;;;;;;54.70;45.60;;;;;;;;;;5011943;28;20544;-63
2021/03/25 00:21:33;;;;;;;51.33;42.63;;;;;;;;;;4998204;28;20608;-64
2021/03/25 00:24:00;;;;;;;51.80;44.20;;;;;;;;;;5010347;28;20480;-64
2021/03/25 00:26:26;;;;;;;55.90;44.50;;;;;;;;;;4997661;28;20486;-64
2021/03/25 00:28:53;;;;;;;54.53;44.83;;;;;;;;;;5016350;28;20547;-64
2021/03/25 00:31:20;;;;;;;51.90;44.37;;;;;;;;;;5014451;28;20454;-64
2021/03/25 00:33:50;;;;;;;49.60;42.30;;;;;;;;;;4996606;28;20465;-63
2021/03/25 00:36:17;;;;;;;53.00;41.30;;;;;;;;;;5016324;28;20580;-64
2021/03/25 00:38:44;;;;;;;58.33;45.43;;;;;;;;;;5013834;28;20956;-64
2021/03/25 00:41:10;;;;;;;48.77;42.80;;;;;;;;;;5018142;28;20959;-63
2021/03/25 00:43:37;;;;;;;52.97;44.27;;;;;;;;;;5031247;28;20545;-64
2021/03/25 00:46:04;;;;;;;49.40;40.70;;;;;;;;;;5025554;28;20608;-63
2021/03/25 00:48:30;;;;;;;59.90;42.80;;;;;;;;;;5015411;28;20454;-62
2021/03/25 00:51:00;;;;;;;53.53;42.03;;;;;;;;;;5008576;28;20559;-63
2021/03/25 00:53:29;;;;;;;50.77;42.53;;;;;;;;;;5011735;28;20894;-63
2021/03/25 00:55:55;;;;;;;54.03;43.80;;;;;;;;;;5016027;28;20477;-64
2021/03/25 00:58:22;;;;;;;54.73;42.00;;;;;;;;;;5014563;28;20544;-63
2021/03/25 01:00:50;;;;;;;55.33;45.33;;;;;;;;;;5007312;28;20942;-64
2021/03/25 01:03:18;;;;;;;55.23;42.83;;;;;;;;;;4997244;28;20451;-64
2021/03/25 01:05:44;;;;;;;53.77;43.57;;;;;;;;;;5020136;28;20582;-64
2021/03/25 01:08:12;;;;;;;53.10;45.47;;;;;;;;;;5022400;28;20553;-64
2021/03/25 01:10:40;;;;;;;54.23;44.47;;;;;;;;;;5022399;28;21004;-64
2021/03/25 01:13:08;;;;;;;57.30;46.43;;;;;;;;;;5015028;28;20457;-63
2021/03/25 01:15:35;;;;;;;60.80;47.60;;;;;;;;;;5023038;28;20527;-64
2021/03/25 01:18:02;;;;;;;60.40;47.53;;;;;;;;;;5004700;28;20891;-64
2021/03/25 01:20:30;;;;;;;58.03;48.03;;;;;;;;;;5014127;28;20572;-64
2021/03/25 01:22:57;;;;;;;63.20;49.83;;;;;;;;;;5017168;28;20460;-64
2021/03/25 01:25:27;;;;;;;64.97;46.77;;;;;;;;;;5018032;28;20883;-64
2021/03/25 01:27:53;;;;;;;64.23;46.13;;;;;;;;;;5013483;28;20500;-64
2021/03/25 01:30:20;;;;;;;60.77;46.13;;;;;;;;;;5014753;28;20481;-64
2021/03/25 01:32:47;;;;;;;56.30;44.70;;;;;;;;;;5016441;28;21088;-64
2021/03/25 01:35:15;;;;;;;59.87;46.50;;;;;;;;;;5017153;28;20481;-64
2021/03/25 01:37:41;;;;;;;61.83;48.80;;;;;;;;;;5024177;28;20551;-64
2021/03/25 01:40:11;;;;;;;60.00;46.93;;;;;;;;;;5031206;28;20451;-65
2021/03/25 01:42:38;;;;;;;62.73;49.10;;;;;;;;;;5016940;28;20449;-64
2021/03/25 01:45:20;;;;;;;61.40;48.17;;;;;;;;;;4998627;28;20498;-64
2021/03/25 01:47:46;;;;;;;60.60;47.37;;;;;;;;;;4998133;28;20891;-64
2021/03/25 01:50:13;;;;;;;68.40;49.53;;;;;;;;;;5028923;28;21078;-65
2021/03/25 01:52:42;;;;;;;65.90;48.63;;;;;;;;;;5018004;28;20458;-64
2021/03/25 01:55:19;;;;;;;70.93;51.27;;;;;;;;;;5028878;28;20494;-63
2021/03/25 01:57:54;;;;;;;64.57;50.50;;;;;;;;;;5010029;28;20438;-63
2021/03/25 02:00:26;;;;;;;66.00;49.90;;;;;;;;;;5007512;28;20464;-63
2021/03/25 02:03:01;;;;;;;66.23;50.87;;;;;;;;;;5014126;28;20461;-63
2021/03/25 02:05:31;;;;;;;65.90;51.40;;;;;;;;;;5012985;28;20477;-63
2021/03/25 02:08:04;;;;;;;64.10;50.23;;;;;;;;;;5025623;28;20477;-63
2021/03/25 02:10:36;;;;;;;65.57;52.37;;;;;;;;;;5012606;28;20488;-64
2021/03/25 02:13:08;;;;;;;64.83;50.23;;;;;;;;;;5013711;28;20438;-64
2021/03/25 02:15:38;;;;;;;63.43;49.20;;;;;;;;;;4997273;28;20498;-64
2021/03/25 02:18:10;;;;;;;64.83;50.37;;;;;;;;;;4993950;28;20496;-64
2021/03/25 02:21:00;;;;;;;65.67;53.27;;;;;;;;;;5015189;28;20543;-64
2021/03/25 02:23:37;;;;;;;66.50;49.93;;;;;;;;;;5020129;28;21241;-64
2021/03/25 02:26:07;;;;;;;61.33;49.17;;;;;;;;;;5011472;28;20491;-63
2021/03/25 02:28:42;;;;;;;61.67;50.73;;;;;;;;;;5029738;28;20523;-63
2021/03/25 02:31:12;;;;;;;57.13;49.00;;;;;;;;;;5029088;28;20571;-63
2021/03/25 02:33:40;;;;;;;63.30;50.17;;;;;;;;;;5023400;28;20468;-63
2021/03/25 02:36:08;;;;;;;58.43;48.67;;;;;;;;;;5015340;28;20575;-63
2021/03/25 02:38:37;;;;;;;58.30;47.10;;;;;;;;;;5023615;28;20552;-63
2021/03/25 02:41:05;;;;;;;57.20;46.67;;;;;;;;;;5012592;28;20544;-63
2021/03/25 02:43:34;;;;;;;54.03;47.07;;;;;;;;;;5011504;28;20478;-63
2021/03/25 02:46:03;;;;;;;56.43;47.13;;;;;;;;;;5026793;28;20579;-63
2021/03/25 02:48:31;;;;;;;50.57;44.57;;;;;;;;;;5021456;28;20469;-64
2021/03/25 02:51:00;;;;;;;52.43;45.20;;;;;;;;;;4993523;28;20986;-64
2021/03/25 02:53:28;;;;;;;53.27;43.60;;;;;;;;;;5001643;28;20476;-64
2021/03/25 02:55:59;;;;;;;52.60;44.90;;;;;;;;;;4993271;28;20474;-64
2021/03/25 02:58:26;;;;;;;53.93;43.13;;;;;;;;;;5001321;28;21027;-64
2021/03/25 03:00:57;;;;;;;52.00;42.90;;;;;;;;;;5024490;28;20464;-64
2021/03/25 03:03:27;;;;;;;50.97;42.73;;;;;;;;;;5029363;28;20457;-64
2021/03/25 03:05:55;;;;;;;48.80;42.50;;;;;;;;;;5013028;28;20910;-64
2021/03/25 03:08:22;;;;;;;58.27;44.03;;;;;;;;;;5021770;28;20559;-64
2021/03/25 03:10:52;;;;;;;49.33;40.67;;;;;;;;;;5015447;28;20484;-63
2021/03/25 03:13:20;;;;;;;54.30;43.60;;;;;;;;;;5032305;28;20456;-64
2021/03/25 03:15:48;;;;;;;51.03;42.07;;;;;;;;;;5012506;28;20495;-64
2021/03/25 03:18:19;;;;;;;47.17;38.40;;;;;;;;;;5014437;28;20535;-64
2021/03/25 03:20:50;;;;;;;48.63;43.23;;;;;;;;;;5014165;28;21102;-64
2021/03/25 03:23:17;;;;;;;46.53;40.77;;;;;;;;;;5018654;28;20580;-64
2021/03/25 03:25:44;;;;;;;45.37;39.53;;;;;;;;;;5011911;28;21059;-64
2021/03/25 03:28:14;;;;;;;51.73;42.20;;;;;;;;;;5032022;28;20441;-64
2021/03/25 03:30:44;;;;;;;46.40;39.27;;;;;;;;;;5012644;28;21055;-64
2021/03/25 03:33:14;;;;;;;50.07;42.03;;;;;;;;;;5030168;28;20571;-64
2021/03/25 03:35:42;;;;;;;50.70;40.57;;;;;;;;;;5008640;28;20484;-64
2021/03/25 03:38:12;;;;;;;55.93;44.93;;;;;;;;;;5030909;28;20469;-64
2021/03/25 03:40:42;;;;;;;51.93;43.30;;;;;;;;;;5019309;28;20960;-64
2021/03/25 03:43:10;;;;;;;58.30;45.80;;;;;;;;;;5031944;28;20475;-64
2021/03/25 03:45:37;;;;;;;58.93;46.37;;;;;;;;;;5018145;28;20492;-64
2021/03/25 03:48:06;;;;;;;64.17;48.00;;;;;;;;;;5032190;28;20531;-64
2021/03/25 03:50:36;;;;;;;58.50;48.93;;;;;;;;;;5016294;28;20528;-65
2021/03/25 03:53:03;;;;;;;62.90;50.10;;;;;;;;;;5029579;28;20956;-65
2021/03/25 03:55:30;;;;;;;67.30;52.20;;;;;;;;;;5016304;28;20489;-65
2021/03/25 03:58:05;;;;;;;67.13;52.10;;;;;;;;;;5019119;28;20491;-64
2021/03/25 04:00:34;;;;;;;64.33;51.20;;;;;;;;;;5025205;28;20483;-64
2021/03/25 04:03:05;;;;;;;61.50;52.30;;;;;;;;;;5026644;28;21058;-64
2021/03/25 04:05:33;;;;;;;62.03;51.73;;;;;;;;;;5018318;28;20739;-64
2021/03/25 04:08:02;;;;;;;68.13;54.13;;;;;;;;;;5016371;28;20560;-64
2021/03/25 04:10:31;;;;;;;65.60;51.03;;;;;;;;;;5023476;28;20579;-64
2021/03/25 04:12:59;;;;;;;61.67;51.07;;;;;;;;;;5021053;28;20457;-64
2021/03/25 04:15:28;;;;;;;62.93;50.37;;;;;;;;;;5011892;28;20539;-64
2021/03/25 04:17:58;;;;;;;68.33;49.27;;;;;;;;;;5010623;28;21047;-65
2021/03/25 04:20:26;;;;;;;59.40;50.97;;;;;;;;;;5015307;28;20518;-64
2021/03/25 04:22:55;;;;;;;57.57;47.00;;;;;;;;;;5006579;28;20475;-65
2021/03/25 04:25:24;;;;;;;63.50;48.27;;;;;;;;;;5054328;22;20614;-67
2021/03/25 04:27:54;;;;;;;63.97;49.00;;;;;;;;;;5047054;28;20543;-67
2021/03/25 04:30:22;;;;;;;56.40;47.03;;;;;;;;;;5051742;28;20528;-68
2021/03/25 04:32:50;;;;;;;54.80;46.93;;;;;;;;;;5062462;28;21025;-67
2021/03/25 04:35:17;;;;;;;61.03;48.97;;;;;;;;;;5041384;28;20538;-67
2021/03/25 04:37:45;;;;;;;60.33;47.53;;;;;;;;;;5053750;28;20550;-68
2021/03/25 04:40:14;;;;;;;57.70;47.87;;;;;;;;;;5050011;28;20493;-67
2021/03/25 04:42:41;;;;;;;57.47;49.17;;;;;;;;;;5054150;28;20458;-67
2021/03/25 04:45:15;;;;;;;58.63;46.73;;;;;;;;;;5053732;28;20463;-68
2021/03/25 04:47:44;;;;;;;54.10;46.30;;;;;;;;;;5054330;28;20546;-67
2021/03/25 04:50:16;;;;;;;60.13;47.73;;;;;;;;;;5052131;28;20483;-67
2021/03/25 04:52:43;;;;;;;60.27;46.67;;;;;;;;;;5052329;28;20553;-67
2021/03/25 04:55:18;;;;;;;61.00;48.17;;;;;;;;;;5053791;28;20970;-67
2021/03/25 04:57:47;;;;;;;53.70;45.53;;;;;;;;;;5053352;28;20832;-67
2021/03/25 05:00:16;;;;;;;56.13;47.50;;;;;;;;;;5053336;28;20459;-67
2021/03/25 05:02:42;;;;;;;61.30;49.40;;;;;;;;;;5052997;28;20458;-67
2021/03/25 05:05:15;;;;;;;58.27;47.97;;;;;;;;;;5050917;28;20754;-68
2021/03/25 05:07:43;;;;;;;62.73;55.50;;;;;;;;;;5047927;28;20468;-68
2021/03/25 05:10:15;;;;;;;62.70;55.90;;;;;;;;;;5048363;28;20906;-68
2021/03/25 05:12:42;;;;;;;62.97;55.00;;;;;;;;;;5034765;28;20810;-67
2021/03/25 05:15:13;;;;;;;62.00;55.40;;;;;;;;;;5052632;28;20521;-67
2021/03/25 05:17:44;;;;;;;60.27;53.77;;;;;;;;;;5053507;28;20508;-67
2021/03/25 05:20:15;;;;;;;59.60;53.13;;;;;;;;;;5053585;28;20436;-67
2021/03/25 05:22:46;;;;;;;60.67;54.03;;;;;;;;;;5052639;28;20467;-68
2021/03/25 05:25:15;;;;;;;63.20;55.10;;;;;;;;;;5053629;28;20597;-68
2021/03/25 05:27:46;;;;;;;60.63;54.00;;;;;;;;;;5051092;28;20532;-67
2021/03/25 05:30:16;;;;;;;55.43;48.20;;;;;;;;;;5034602;28;20464;-68
2021/03/25 05:32:44;;;;;;;58.60;50.13;;;;;;;;;;5049305;28;20463;-68
2021/03/25 05:35:15;;;;;;;60.27;49.53;;;;;;;;;;5053834;28;20456;-67
2021/03/25 05:37:43;;;;;;;61.70;50.90;;;;;;;;;;5048054;28;20471;-67
2021/03/25 05:40:14;;;;;;;58.37;52.10;;;;;;;;;;5050350;28;20464;-68
2021/03/25 05:42:44;;;;;;;57.47;49.33;;;;;;;;;;5053455;28;20913;-68
2021/03/25 05:45:25;;;;;;;57.70;49.10;;;;;;;;;;5053027;28;20521;-68
2021/03/25 05:47:59;;;;;;;18.80;10.80;;;;;;;;;;5038672;28;20506;-68
2021/03/25 05:50:30;;;;;;;17.00;12.60;;;;;;;;;;5051508;28;20472;-69
2021/03/25 05:53:03;;;;;;;17.10;12.77;;;;;;;;;;5052233;28;20486;-70
2021/03/25 05:55:43;;;;;;;21.63;16.37;;;;;;;;;;5049465;28;20510;-69
2021/03/25 05:58:13;;;;;;;19.47;16.37;;;;;;;;;;5040867;28;20464;-69
2021/03/25 06:00:45;;;;;;;24.93;20.40;;;;;;;;;;5052881;28;20444;-69
2021/03/25 06:03:14;;;;;;;21.00;18.17;;;;;;;;;;5052742;28;20566;-69
2021/03/25 06:05:42;;;;;;;25.17;20.53;;;;;;;;;;5049414;28;20509;-69
2021/03/25 06:08:19;;;;;;;18.80;16.73;;;;;;;;;;5051434;28;20467;-69
2021/03/25 06:10:53;;;;;;;20.73;17.37;;;;;;;;;;5053116;28;20487;-69
2021/03/25 06:13:34;;;;;;;20.53;18.43;;;;;;;;;;5050964;28;20464;-69
2021/03/25 06:16:09;;;;;;;21.23;19.13;;;;;;;;;;5052785;28;20562;-69
2021/03/25 06:18:45;;;;;;;24.00;20.00;;;;;;;;;;5047908;28;20455;-69
2021/03/25 06:21:16;;;;;;;20.70;18.40;;;;;;;;;;5053084;28;20557;-69
2021/03/25 06:24:00;;;;;;;19.73;17.70;;;;;;;;;;5052507;28;20456;-69
2021/03/25 06:26:30;;;;;;;17.97;16.00;;;;;;;;;;5048695;28;20471;-69
2021/03/25 06:29:02;;;;;;;22.00;19.80;;;;;;;;;;5044695;28;20981;-69
2021/03/25 06:31:35;;;;;;;17.90;16.00;;;;;;;;;;5051426;28;20484;-70
2021/03/25 06:34:04;;;;;;;19.77;16.50;;;;;;;;;;5051012;28;20474;-69
2021/03/25 06:36:38;;;;;;;20.70;16.60;;;;;;;;;;5047986;28;20482;-69
2021/03/25 06:39:05;;;;;;;20.23;18.23;;;;;;;;;;5043910;28;20863;-69
2021/03/25 06:41:38;;;;;;;20.50;18.33;;;;;;;;;;5048511;28;20460;-69
2021/03/25 06:44:05;;;;;;;21.10;17.07;;;;;;;;;;5040128;28;20985;-69
2021/03/25 06:46:34;;;;;;;21.80;19.03;;;;;;;;;;5044768;28;20563;-69
2021/03/25 06:49:02;;;;;;;23.80;21.30;;;;;;;;;;5048609;28;20460;-70
2021/03/25 06:51:29;;;;;;;26.13;19.90;;;;;;;;;;5043005;28;20483;-68
2021/03/25 06:54:04;;;;;;;18.60;16.10;;;;;;;;;;5046211;28;20475;-68
2021/03/25 06:56:32;;;;;;;22.67;18.60;;;;;;;;;;5037876;28;21009;-67
2021/03/25 06:59:02;;;;;;;25.83;18.40;;;;;;;;;;5038441;28;20547;-68
2021/03/25 07:01:30;;;;;;;25.13;22.40;;;;;;;;;;5050182;28;20470;-68
2021/03/25 07:03:58;;;;;;;21.07;16.57;;;;;;;;;;5052649;28;20589;-68
2021/03/25 07:06:27;;;;;;;22.53;19.27;;;;;;;;;;5047623;28;20468;-67
2021/03/25 07:08:55;;;;;;;26.37;18.37;;;;;;;;;;5042096;28;21081;-69
2021/03/25 07:11:22;;;;;;;28.17;23.30;;;;;;;;;;5051389;28;20529;-69
2021/03/25 07:13:57;;;;;;;21.10;18.80;;;;;;;;;;5052190;28;20800;-68
2021/03/25 07:16:25;;;;;;;28.50;21.70;;;;;;;;;;5052749;28;20470;-66
2021/03/25 07:18:57;;;;;;;36.67;23.30;;;;;;;;;;5050403;28;20448;-66
2021/03/25 07:21:29;;;;;;;37.30;22.40;;;;;;;;;;5052368;28;20440;-67
2021/03/25 07:23:56;;;;;;;28.03;21.13;;;;;;;;;;5051691;28;20955;-68
2021/03/25 07:26:27;;;;;;;48.60;41.50;;;;;;;;;;5052020;28;20480;-64
2021/03/25 07:28:58;;;;;;;56.27;49.33;;;;;;;;;;5051499;28;20526;-67
2021/03/25 07:31:30;;;;;;;54.30;42.37;;;;;;;;;;5035106;28;20480;-67
2021/03/25 07:33:56;;;;;;;54.10;48.17;;;;;;;;;;5038022;28;20449;-66
2021/03/25 07:36:23;;;;;;;50.93;44.27;;;;;;;;;;5031929;28;20465;-65
2021/03/25 07:38:59;;;;;;;49.20;41.90;;;;;;;;;;5032056;28;20828;-67
2021/03/25 07:41:27;;;;;;;48.37;41.83;;;;;;;;;;5032291;28;20523;-67
2021/03/25 07:43:55;;;;;;;49.00;43.47;;;;;;;;;;5051909;28;20471;-66
2021/03/25 07:46:24;;;;;;;55.60;44.43;;;;;;;;;;5051351;28;20810;-66
2021/03/25 07:48:59;;;;;;;51.40;41.93;;;;;;;;;;5051959;28;20487;-67
2021/03/25 07:51:26;;;;;;;48.37;43.17;;;;;;;;;;5051578;28;20479;-68
2021/03/25 07:54:13;;;;;;;47.77;42.67;;;;;;;;;;5051607;28;20456;-67
2021/03/25 07:56:53;;;;;;;52.00;43.30;;;;;;;;;;5051018;28;20590;-67
2021/03/25 07:59:27;;;;;;;52.10;42.13;;;;;;;;;;5051561;28;20451;-66
2021/03/25 08:01:54;;;;;;;45.93;40.77;;;;;;;;;;5051864;28;20533;-67
2021/03/25 08:04:25;;;;;;;45.20;40.20;;;;;;;;;;5051726;28;20448;-67
2021/03/25 08:06:58;;;;;;;45.57;39.60;;;;;;;;;;5051002;28;20903;-67
2021/03/25 08:09:27;;;;;;;45.97;39.60;;;;;;;;;;5051613;28;20428;-68
2021/03/25 08:11:54;;;;;;;44.17;38.93;;;;;;;;;;5051469;28;20479;-68
2021/03/25 08:14:22;;;;;;;51.83;44.40;;;;;;;;;;5051936;28;20534;-67
2021/03/25 08:16:50;;;;;;;57.03;46.60;;;;;;;;;;5051401;28;20827;-68
2021/03/25 08:19:34;;;;;;;57.43;48.10;;;;;;;;;;5050910;28;20839;-67
2021/03/25 08:22:21;;;;;;;57.87;50.03;;;;;;;;;;5051403;28;20447;-68
2021/03/25 08:25:00;;;;;;;59.20;52.43;;;;;;;;;;5051771;28;20516;-67
2021/03/25 08:27:32;;;;;;;49.97;43.83;;;;;;;;;;5050924;28;21001;-68
2021/03/25 08:30:04;;;;;;;48.87;43.53;;;;;;;;;;5050843;28;20575;-67
2021/03/25 08:32:35;;;;;;;48.93;43.53;;;;;;;;;;5036127;28;20547;-67
2021/03/25 08:35:06;;;;;;;49.10;42.10;;;;;;;;;;5051060;28;20822;-68
2021/03/25 08:37:38;;;;;;;49.40;44.13;;;;;;;;;;5051262;28;20452;-68
2021/03/25 08:40:10;;;;;;;49.53;44.33;;;;;;;;;;5051538;28;20443;-67
2021/03/25 08:42:39;;;;;;;51.67;46.07;;;;;;;;;;5050501;28;20528;-67
2021/03/25 08:45:09;;;;;;;50.97;45.37;;;;;;;;;;5051304;28;20451;-68
2021/03/25 08:47:42;;;;;;;50.80;45.40;;;;;;;;;;5051118;28;20947;-67
2021/03/25 08:50:23;;;;;;;49.27;44.17;;;;;;;;;;5051341;28;21016;-68
2021/03/25 08:52:51;;;;;;;55.23;49.23;;;;;;;;;;5048996;28;20455;-67
2021/03/25 08:55:23;;;;;;;55.53;49.03;;;;;;;;;;5049885;28;20862;-67
2021/03/25 08:57:52;;;;;;;51.10;45.77;;;;;;;;;;5051090;28;20531;-67
2021/03/25 09:00:22;;;;;;;52.93;47.07;;;;;;;;;;5051246;28;20450;-66
2021/03/25 09:02:51;;;;;;;50.70;45.37;;;;;;;;;;5051323;28;20453;-67
2021/03/25 09:05:22;;;;;;;48.03;43.00;;;;;;;;;;5050714;28;20951;-68
2021/03/25 09:07:49;;;;;;;50.87;45.23;;;;;;;;;;5050578;28;20455;-68
2021/03/25 09:10:23;;;;;;;51.30;45.90;;;;;;;;;;5051204;28;20486;-66
2021/03/25 09:12:49;;;;;;;53.77;48.20;;;;;;;;;;5051182;28;20434;-67
2021/03/25 09:15:16;;;;;;;52.00;46.80;;;;;;;;;;5052582;28;20471;-67
2021/03/25 09:17:48;;;;;;;47.10;42.50;;;;;;;;;;5054872;28;20451;-68
2021/03/25 09:20:24;;;;;;;44.87;40.43;;;;;;;;;;5054831;28;20447;-67
2021/03/25 09:22:52;;;;;;;43.77;39.57;;;;;;;;;;5054725;28;20479;-68
2021/03/25 09:25:37;;;;;;;43.90;39.70;;;;;;;;;;5054241;28;20483;-67
2021/03/25 09:28:06;;;;;;;44.00;39.60;;;;;;;;;;5055835;28;20432;-68
2021/03/25 09:30:36;;;;;;;41.13;37.17;;;;;;;;;;5054177;28;20574;-68
2021/03/25 09:33:35;;;;;;;43.57;39.57;;;;;;;;;;5054348;28;20448;-68
2021/03/25 09:36:02;;;;;;;45.27;40.87;;;;;;;;;;4992486;28;20462;-67
2021/03/25 09:38:30;;;;;;;43.03;39.13;;;;;;;;;;4992628;28;20462;-68
2021/03/25 09:40:58;;;;;;;40.47;36.73;;;;;;;;;;5020802;28;20980;-68
2021/03/25 09:43:35;;;;;;;44.37;40.27;;;;;;;;;;5054041;28;20449;-68
2021/03/25 09:46:23;;;;;;;39.40;35.70;;;;;;;;;;5054200;28;20520;-67
2021/03/25 09:48:50;;;;;;;40.93;37.30;;;;;;;;;;5053909;28;20445;-67
2021/03/25 09:51:19;;;;;;;37.03;33.60;;;;;;;;;;5053922;28;21068;-68
2021/03/25 09:53:47;;;;;;;37.10;33.50;;;;;;;;;;5054369;28;20455;-68
2021/03/25 09:56:32;;;;;;;38.00;34.40;;;;;;;;;;5052977;28;21060;-68
2021/03/25 09:59:00;;;;;;;35.20;32.00;;;;;;;;;;5054179;28;20494;-66
2021/03/25 10:01:43;;;;;;;36.10;32.87;;;;;;;;;;5053754;28;20444;-66
2021/03/25 10:04:27;;;;;;;35.60;32.30;;;;;;;;;;5054119;28;20530;-68
2021/03/25 10:06:57;;;;;;;37.30;33.60;;;;;;;;;;5053837;28;20559;-68
2021/03/25 10:09:42;;;;;;;36.17;32.50;;;;;;;;;;5053335;28;20458;-68
2021/03/25 10:12:11;;;;;;;34.73;31.53;;;;;;;;;;5053220;28;21020;-66
2021/03/25 10:14:51;;;;;;;33.47;30.30;;;;;;;;;;5053872;28;20501;-68
2021/03/25 10:17:39;;;;;;;33.73;30.60;;;;;;;;;;5053479;28;20510;-68
2021/03/25 10:20:05;;;;;;;31.93;28.97;;;;;;;;;;5048297;28;21026;-68
2021/03/25 10:22:32;;;;;;;30.63;27.93;;;;;;;;;;5053314;28;20447;-68
2021/03/25 10:24:59;;;;;;;30.57;27.73;;;;;;;;;;5053580;28;20771;-70
2021/03/25 10:27:33;;;;;;;31.07;28.17;;;;;;;;;;5053399;28;20444;-65
2021/03/25 10:30:05;;;;;;;32.00;29.03;;;;;;;;;;5053390;28;20891;-65
2021/03/25 10:32:35;;;;;;;27.43;24.73;;;;;;;;;;5051877;28;21024;-67
2021/03/25 10:35:02;;;;;;;29.10;26.40;;;;;;;;;;5053290;28;20790;-65
2021/03/25 10:37:34;;;;;;;28.20;25.60;;;;;;;;;;5034681;28;20452;-67
2021/03/25 10:40:05;;;;;;;29.90;26.90;;;;;;;;;;5048948;28;20475;-65
2021/03/25 10:42:33;;;;;;;27.80;25.23;;;;;;;;;;5055162;28;20535;-65
2021/03/25 10:45:15;;;;;;;22.33;20.27;;;;;;;;;;5064406;28;20448;-67
2021/03/25 10:47:46;;;;;;;25.33;22.93;;;;;;;;;;5052632;28;20538;-68
2021/03/25 10:50:19;;;;;;;21.50;19.60;;;;;;;;;;5053511;28;20498;-64
2021/03/25 10:52:46;;;;;;;23.80;21.60;;;;;;;;;;5052871;28;20820;-68
2021/03/25 10:55:18;;;;;;;22.30;20.30;;;;;;;;;;5053081;28;20538;-65
2021/03/25 10:57:47;;;;;;;21.90;19.90;;;;;;;;;;5044064;28;20948;-65
2021/03/25 11:00:18;;;;;;;21.17;19.37;;;;;;;;;;5032929;28;20598;-65
2021/03/25 11:02:45;;;;;;;21.10;19.20;;;;;;;;;;5033111;28;20440;-65
2021/03/25 11:05:17;;;;;;;22.50;20.47;;;;;;;;;;5032699;28;20478;-69
2021/03/25 11:07:44;;;;;;;21.40;19.30;;;;;;;;;;5032682;28;20936;-65
2021/03/25 11:10:29;;;;;;;18.70;17.00;;;;;;;;;;5033219;28;20453;-65
2021/03/25 11:12:58;;;;;;;19.17;17.20;;;;;;;;;;5032972;28;20512;-65
2021/03/25 11:15:28;;;;;;;18.20;16.57;;;;;;;;;;5032197;28;20983;-67
2021/03/25 11:17:56;;;;;;;22.17;19.87;;;;;;;;;;5037371;28;20847;-65
2021/03/25 11:20:25;;;;;;;22.03;19.80;;;;;;;;;;5052256;28;20444;-64
2021/03/25 11:22:52;;;;;;;19.27;17.53;;;;;;;;;;5052377;28;20939;-65
2021/03/25 11:25:22;;;;;;;21.00;18.90;;;;;;;;;;5032886;28;20500;-65
2021/03/25 11:27:49;;;;;;;16.27;14.43;;;;;;;;;;5032628;28;20428;-65
2021/03/25 11:30:26;;;;;;;9.73;8.20;;;;;;;;;;5032220;28;20542;-64
2021/03/25 11:32:53;;;;;;;12.53;11.30;;;;;;;;;;5045508;28;20444;-65
2021/03/25 11:35:22;;;;;;;10.63;9.53;;;;;;;;;;5051604;28;20472;-65
2021/03/25 11:37:49;;;;;;;12.20;10.90;;;;;;;;;;5051838;28;20614;-68
2021/03/25 11:40:17;;;;;;;11.67;10.00;;;;;;;;;;5051503;28;20470;-65
2021/03/25 11:42:45;;;;;;;8.10;7.30;;;;;;;;;;5051891;28;20448;-65
2021/03/25 11:45:26;;;;;;;9.10;7.90;;;;;;;;;;5042013;28;21043;-70
2021/03/25 11:47:54;;;;;;;12.00;10.90;;;;;;;;;;5034415;28;20497;-67
2021/03/25 11:50:37;;;;;;;11.53;10.53;;;;;;;;;;5032773;28;20485;-68
2021/03/25 11:53:05;;;;;;;12.00;10.80;;;;;;;;;;5043084;28;20527;-68
2021/03/25 11:55:34;;;;;;;12.57;11.30;;;;;;;;;;5049819;28;20476;-68
2021/03/25 11:58:16;;;;;;;10.97;9.87;;;;;;;;;;5047312;28;20466;-67
2021/03/25 12:00:55;;;;;;;10.10;9.10;;;;;;;;;;5047221;28;20513;-68
2021/03/25 12:03:26;;;;;;;11.57;10.37;;;;;;;;;;5040828;28;20878;-65
2021/03/25 12:05:52;;;;;;;12.07;10.87;;;;;;;;;;5043461;28;20494;-65
2021/03/25 12:08:27;;;;;;;14.60;13.03;;;;;;;;;;5051522;28;20455;-65
2021/03/25 12:10:58;;;;;;;14.07;12.90;;;;;;;;;;5051549;28;20498;-64
2021/03/25 12:13:25;;;;;;;10.33;9.30;;;;;;;;;;5051631;28;20456;-64
2021/03/25 12:15:51;;;;;;;13.27;12.00;;;;;;;;;;5051446;28;20464;-65
2021/03/25 12:18:21;;;;;;;13.50;12.17;;;;;;;;;;5052262;28;20517;-65
2021/03/25 12:20:49;;;;;;;13.73;12.23;;;;;;;;;;5052199;28;20602;-66
2021/03/25 12:23:16;;;;;;;11.93;9.90;;;;;;;;;;5051417;28;20542;-64
2021/03/25 12:25:43;;;;;;;13.77;12.43;;;;;;;;;;5045850;28;21009;-64
2021/03/25 12:28:10;;;;;;;6.00;5.03;;;;;;;;;;5033169;28;20482;-68
2021/03/25 12:30:37;;;;;;;15.47;14.07;;;;;;;;;;5039096;28;20475;-65
2021/03/25 12:33:04;;;;;;;17.77;16.07;;;;;;;;;;5049681;28;21133;-65
2021/03/25 12:35:30;;;;;;;15.60;14.20;;;;;;;;;;5049856;28;20507;-66
2021/03/25 12:37:58;;;;;;;15.97;14.57;;;;;;;;;;5051291;28;21005;-65
2021/03/25 12:40:25;;;;;;;14.77;13.47;;;;;;;;;;5050293;28;20448;-65
2021/03/25 12:42:52;;;;;;;14.60;13.20;;;;;;;;;;5031839;28;20448;-65
2021/03/25 12:45:24;;;;;;;14.83;13.47;;;;;;;;;;5040711;28;20467;-65
2021/03/25 12:47:51;;;;;;;16.23;13.10;;;;;;;;;;5032705;28;20452;-65
2021/03/25 12:50:18;;;;;;;13.87;12.57;;;;;;;;;;5035013;28;20453;-65
2021/03/25 12:52:44;;;;;;;15.43;13.93;;;;;;;;;;5040962;28;20536;-65
2021/03/25 12:55:12;;;;;;;14.03;12.83;;;;;;;;;;5040510;28;20483;-67
2021/03/25 12:57:39;;;;;;;13.47;11.60;;;;;;;;;;5051835;28;20448;-66
2021/03/25 13:00:08;;;;;;;8.47;7.40;;;;;;;;;;5054354;28;20538;-66
2021/03/25 13:02:34;;;;;;;6.70;5.00;;;;;;;;;;5051979;28;20452;-66
2021/03/25 13:05:01;;;;;;;8.23;7.10;;;;;;;;;;5047432;28;20787;-65
2021/03/25 13:07:27;;;;;;;9.17;8.27;;;;;;;;;;5036178;28;20452;-66
2021/03/25 13:09:55;;;;;;;8.23;5.40;;;;;;;;;;5048221;28;20454;-64
2021/03/25 13:12:24;;;;;;;6.00;4.03;;;;;;;;;;5055401;28;20483;-65
2021/03/25 13:14:51;;;;;;;10.27;9.10;;;;;;;;;;5047496;28;20475;-65
2021/03/25 13:17:18;;;;;;;6.67;6.00;;;;;;;;;;5054266;28;20463;-65
2021/03/25 13:19:44;;;;;;;10.57;9.50;;;;;;;;;;5044276;28;20851;-65
2021/03/25 13:22:11;;;;;;;7.87;6.00;;;;;;;;;;5037238;28;20877;-67
2021/03/25 13:24:38;;;;;;;6.30;4.40;;;;;;;;;;5038012;28;20457;-65
2021/03/25 13:27:05;;;;;;;7.50;4.00;;;;;;;;;;5043821;28;20499;-64
2021/03/25 13:29:32;;;;;;;6.00;4.00;;;;;;;;;;5051783;28;20457;-65
2021/03/25 13:32:00;;;;;;;8.63;4.20;;;;;;;;;;5053817;28;21006;-65
2021/03/25 13:34:26;;;;;;;7.53;4.90;;;;;;;;;;5056081;28;20491;-64
2021/03/25 13:36:53;;;;;;;5.23;3.73;;;;;;;;;;5053285;28;20490;-67
2021/03/25 13:39:20;;;;;;;11.63;8.87;;;;;;;;;;5046610;28;20531;-68
2021/03/25 13:41:46;;;;;;;9.93;8.93;;;;;;;;;;5054058;28;20931;-65
2021/03/25 13:44:13;;;;;;;10.27;9.03;;;;;;;;;;5054771;28;20889;-65
2021/03/25 13:46:40;;;;;;;11.00;9.53;;;;;;;;;;5052272;28;20483;-65
2021/03/25 13:49:07;;;;;;;9.93;8.93;;;;;;;;;;5053207;28;20581;-65
2021/03/25 13:51:33;;;;;;;9.90;8.90;;;;;;;;;;5034838;28;20484;-65
2021/03/25 13:54:00;;;;;;;10.43;9.33;;;;;;;;;;5048745;28;20448;-66
2021/03/25 13:56:27;;;;;;;9.50;8.50;;;;;;;;;;5047842;28;20469;-65
2021/03/25 13:58:53;;;;;;;9.30;8.30;;;;;;;;;;5034441;28;20453;-65
2021/03/25 14:01:20;;;;;;;9.40;8.50;;;;;;;;;;5043274;28;20547;-65
2021/03/25 14:03:48;;;;;;;8.90;8.00;;;;;;;;;;5042673;28;20454;-65
2021/03/25 14:06:14;;;;;;;10.20;9.03;;;;;;;;;;5041727;28;20618;-65
2021/03/25 14:08:41;;;;;;;9.80;8.80;;;;;;;;;;5034189;28;21008;-64
2021/03/25 14:11:07;;;;;;;10.03;9.03;;;;;;;;;;5038504;28;20484;-64
2021/03/25 14:13:34;;;;;;;9.40;8.50;;;;;;;;;;5041472;28;20543;-65
2021/03/25 14:16:01;;;;;;;11.00;8.93;;;;;;;;;;5034601;28;20473;-66
2021/03/25 14:18:28;;;;;;;9.77;8.90;;;;;;;;;;5052882;28;20456;-64
2021/03/25 14:20:57;;;;;;;11.03;9.90;;;;;;;;;;5040783;28;20455;-65
2021/03/25 14:23:24;;;;;;;10.37;9.37;;;;;;;;;;5049551;28;20452;-64
2021/03/25 14:25:52;;;;;;;9.50;8.50;;;;;;;;;;5033281;28;20491;-65
2021/03/25 14:28:19;;;;;;;10.93;9.60;;;;;;;;;;5033486;28;20740;-64
2021/03/25 14:30:46;;;;;;;10.83;9.90;;;;;;;;;;5033493;28;20477;-64
2021/03/25 14:33:13;;;;;;;10.07;9.07;;;;;;;;;;5038812;28;20452;-64
2021/03/25 14:35:40;;;;;;;10.83;9.77;;;;;;;;;;5053322;28;20530;-64
2021/03/25 14:38:09;;;;;;;9.30;8.40;;;;;;;;;;5050867;28;20461;-66